sensor_id;sensor_type;location;lat;lon;timestamp;P1;durP1;ratioP1;P2;durP2;ratioP2
29938;SDS011;16799;50.844;5.304;2023-05-25T00:01:23;8.77;;;4.97;;
29938;SDS011;16799;50.844;5.304;2023-05-25T00:03:50;11.73;;;5.60;;
29938;SDS011;16799;50.844;5.304;2023-05-25T00:06:16;10.10;;;5.27;;
29938;SDS011;16799;50.844;5.304;2023-05-25T00:08:44;9.53;;;5.30;;
29938;SDS011;16799;50.844;5.304;2023-05-25T00:11:10;7.10;;;5.63;;
29938;SDS011;16799;50.844;5.304;2023-05-25T00:13:37;13.23;;;4.23;;
29938;SDS011;16799;50.844;5.304;2023-05-25T00:16:03;13.40;;;6.60;;
29938;SDS011;16799;50.844;5.304;2023-05-25T00:18:30;13.13;;;5.17;;
29938;SDS011;16799;50.844;5.304;2023-05-25T00:20:57;7.73;;;4.53;;
29938;SDS011;16799;50.844;5.304;2023-05-25T00:23:29;5.70;;;5.20;;
29938;SDS011;16799;50.844;5.304;2023-05-25T00:25:55;10.70;;;5.43;;
29938;SDS011;16799;50.844;5.304;2023-05-25T00:28:21;8.90;;;5.10;;
29938;SDS011;16799;50.844;5.304;2023-05-25T00:30:46;15.50;;;6.10;;
29938;SDS011;16799;50.844;5.304;2023-05-25T00:33:12;17.70;;;5.50;;
29938;SDS011;16799;50.844;5.304;2023-05-25T00:35:39;15.07;;;5.60;;
29938;SDS011;16799;50.844;5.304;2023-05-25T00:38:10;18.50;;;6.00;;
29938;SDS011;16799;50.844;5.304;2023-05-25T00:40:37;11.40;;;5.50;;
29938;SDS011;16799;50.844;5.304;2023-05-25T00:43:05;19.20;;;5.33;;
29938;SDS011;16799;50.844;5.304;2023-05-25T00:45:34;11.23;;;5.73;;
29938;SDS011;16799;50.844;5.304;2023-05-25T00:48:00;12.40;;;5.97;;
29938;SDS011;16799;50.844;5.304;2023-05-25T00:50:44;8.07;;;4.47;;
29938;SDS011;16799;50.844;5.304;2023-05-25T00:53:11;10.20;;;6.20;;
29938;SDS011;16799;50.844;5.304;2023-05-25T00:55:43;8.63;;;5.00;;
29938;SDS011;16799;50.844;5.304;2023-05-25T00:58:15;13.27;;;5.40;;
29938;SDS011;16799;50.844;5.304;2023-05-25T01:00:48;8.57;;;6.00;;
29938;SDS011;16799;50.844;5.304;2023-05-25T01:03:18;15.80;;;6.37;;
29938;SDS011;16799;50.844;5.304;2023-05-25T01:05:46;9.20;;;6.30;;
29938;SDS011;16799;50.844;5.304;2023-05-25T01:08:15;11.60;;;6.10;;
29938;SDS011;16799;50.844;5.304;2023-05-25T01:10:42;13.53;;;6.40;;
29938;SDS011;16799;50.844;5.304;2023-05-25T01:13:12;12.77;;;6.27;;
29938;SDS011;16799;50.844;5.304;2023-05-25T01:15:38;10.77;;;6.40;;
29938;SDS011;16799;50.844;5.304;2023-05-25T01:18:04;22.13;;;7.57;;
29938;SDS011;16799;50.844;5.304;2023-05-25T01:20:30;12.83;;;5.57;;
29938;SDS011;16799;50.844;5.304;2023-05-25T01:23:00;14.03;;;7.93;;
29938;SDS011;16799;50.844;5.304;2023-05-25T01:25:36;13.30;;;6.90;;
29938;SDS011;16799;50.844;5.304;2023-05-25T01:28:16;12.43;;;5.50;;
29938;SDS011;16799;50.844;5.304;2023-05-25T01:30:47;8.93;;;6.67;;
29938;SDS011;16799;50.844;5.304;2023-05-25T01:33:15;12.43;;;6.83;;
29938;SDS011;16799;50.844;5.304;2023-05-25T01:35:45;12.37;;;6.17;;
29938;SDS011;16799;50.844;5.304;2023-05-25T01:38:11;17.37;;;6.37;;
29938;SDS011;16799;50.844;5.304;2023-05-25T01:40:37;19.23;;;7.00;;
29938;SDS011;16799;50.844;5.304;2023-05-25T01:43:03;20.77;;;6.97;;
29938;SDS011;16799;50.844;5.304;2023-05-25T01:45:29;14.80;;;6.50;;
29938;SDS011;16799;50.844;5.304;2023-05-25T01:50:42;21.97;;;7.70;;
29938;SDS011;16799;50.844;5.304;2023-05-25T01:53:19;21.20;;;5.77;;
29938;SDS011;16799;50.844;5.304;2023-05-25T01:55:52;6.70;;;5.70;;
29938;SDS011;16799;50.844;5.304;2023-05-25T01:58:22;15.37;;;8.47;;
29938;SDS011;16799;50.844;5.304;2023-05-25T02:00:50;12.70;;;6.67;;
29938;SDS011;16799;50.844;5.304;2023-05-25T02:03:16;8.70;;;7.17;;
29938;SDS011;16799;50.844;5.304;2023-05-25T02:05:43;8.57;;;6.33;;
29938;SDS011;16799;50.844;5.304;2023-05-25T02:08:10;9.90;;;7.13;;
29938;SDS011;16799;50.844;5.304;2023-05-25T02:10:35;13.53;;;5.80;;
29938;SDS011;16799;50.844;5.304;2023-05-25T02:13:01;12.77;;;8.00;;
29938;SDS011;16799;50.844;5.304;2023-05-25T02:15:29;14.43;;;7.60;;
29938;SDS011;16799;50.844;5.304;2023-05-25T02:17:55;11.00;;;6.50;;
29938;SDS011;16799;50.844;5.304;2023-05-25T02:20:21;11.60;;;7.93;;
29938;SDS011;16799;50.844;5.304;2023-05-25T02:22:47;14.97;;;7.50;;
29938;SDS011;16799;50.844;5.304;2023-05-25T02:25:13;10.90;;;6.50;;
29938;SDS011;16799;50.844;5.304;2023-05-25T02:27:39;15.67;;;7.67;;
29938;SDS011;16799;50.844;5.304;2023-05-25T02:30:04;19.90;;;7.57;;
29938;SDS011;16799;50.844;5.304;2023-05-25T02:32:31;11.07;;;7.17;;
29938;SDS011;16799;50.844;5.304;2023-05-25T02:34:57;13.43;;;6.80;;
29938;SDS011;16799;50.844;5.304;2023-05-25T02:37:23;20.43;;;7.87;;
29938;SDS011;16799;50.844;5.304;2023-05-25T02:39:49;10.57;;;7.90;;
29938;SDS011;16799;50.844;5.304;2023-05-25T02:42:15;13.47;;;6.90;;
29938;SDS011;16799;50.844;5.304;2023-05-25T02:44:41;10.37;;;9.20;;
29938;SDS011;16799;50.844;5.304;2023-05-25T02:47:12;12.97;;;8.80;;
29938;SDS011;16799;50.844;5.304;2023-05-25T02:49:42;12.27;;;7.87;;
29938;SDS011;16799;50.844;5.304;2023-05-25T02:52:08;18.23;;;7.53;;
29938;SDS011;16799;50.844;5.304;2023-05-25T02:54:34;16.07;;;9.50;;
29938;SDS011;16799;50.844;5.304;2023-05-25T02:57:01;24.17;;;8.47;;
29938;SDS011;16799;50.844;5.304;2023-05-25T02:59:30;24.13;;;8.80;;
29938;SDS011;16799;50.844;5.304;2023-05-25T03:01:57;12.77;;;8.13;;
29938;SDS011;16799;50.844;5.304;2023-05-25T03:04:23;10.70;;;7.73;;
29938;SDS011;16799;50.844;5.304;2023-05-25T03:06:48;10.50;;;7.00;;
29938;SDS011;16799;50.844;5.304;2023-05-25T03:09:14;11.97;;;6.97;;
29938;SDS011;16799;50.844;5.304;2023-05-25T03:11:40;14.60;;;6.70;;
29938;SDS011;16799;50.844;5.304;2023-05-25T03:14:06;14.73;;;7.90;;
29938;SDS011;16799;50.844;5.304;2023-05-25T03:16:31;15.50;;;8.40;;
29938;SDS011;16799;50.844;5.304;2023-05-25T03:19:00;12.70;;;6.90;;
29938;SDS011;16799;50.844;5.304;2023-05-25T03:21:26;11.20;;;7.00;;
29938;SDS011;16799;50.844;5.304;2023-05-25T03:23:52;8.40;;;6.83;;
29938;SDS011;16799;50.844;5.304;2023-05-25T03:26:18;14.77;;;8.10;;
29938;SDS011;16799;50.844;5.304;2023-05-25T03:28:43;13.10;;;7.67;;
29938;SDS011;16799;50.844;5.304;2023-05-25T03:31:09;12.23;;;8.57;;
29938;SDS011;16799;50.844;5.304;2023-05-25T03:33:36;10.10;;;8.10;;
29938;SDS011;16799;50.844;5.304;2023-05-25T03:36:06;15.70;;;9.37;;
29938;SDS011;16799;50.844;5.304;2023-05-25T03:38:33;16.87;;;8.73;;
29938;SDS011;16799;50.844;5.304;2023-05-25T03:40:59;25.97;;;9.33;;
29938;SDS011;16799;50.844;5.304;2023-05-25T03:43:24;16.13;;;9.67;;
29938;SDS011;16799;50.844;5.304;2023-05-25T03:45:50;21.23;;;9.20;;
29938;SDS011;16799;50.844;5.304;2023-05-25T03:48:16;10.40;;;7.60;;
29938;SDS011;16799;50.844;5.304;2023-05-25T03:50:41;18.77;;;8.90;;
29938;SDS011;16799;50.844;5.304;2023-05-25T03:53:07;27.57;;;8.60;;
29938;SDS011;16799;50.844;5.304;2023-05-25T03:55:33;24.80;;;7.90;;
29938;SDS011;16799;50.844;5.304;2023-05-25T03:57:59;13.50;;;7.37;;
29938;SDS011;16799;50.844;5.304;2023-05-25T04:00:24;11.77;;;8.13;;
29938;SDS011;16799;50.844;5.304;2023-05-25T04:02:50;14.40;;;8.30;;
29938;SDS011;16799;50.844;5.304;2023-05-25T04:05:16;13.63;;;7.10;;
29938;SDS011;16799;50.844;5.304;2023-05-25T04:07:41;20.20;;;9.80;;
29938;SDS011;16799;50.844;5.304;2023-05-25T04:10:07;16.37;;;8.80;;
29938;SDS011;16799;50.844;5.304;2023-05-25T04:12:33;15.13;;;7.73;;
29938;SDS011;16799;50.844;5.304;2023-05-25T04:14:59;13.90;;;8.60;;
29938;SDS011;16799;50.844;5.304;2023-05-25T04:17:24;10.70;;;9.10;;
29938;SDS011;16799;50.844;5.304;2023-05-25T04:19:50;30.43;;;10.53;;
29938;SDS011;16799;50.844;5.304;2023-05-25T04:22:16;16.53;;;9.00;;
29938;SDS011;16799;50.844;5.304;2023-05-25T04:24:43;22.60;;;10.47;;
29938;SDS011;16799;50.844;5.304;2023-05-25T04:27:09;17.93;;;7.70;;
29938;SDS011;16799;50.844;5.304;2023-05-25T04:29:35;11.87;;;9.00;;
29938;SDS011;16799;50.844;5.304;2023-05-25T04:32:02;16.60;;;9.87;;
29938;SDS011;16799;50.844;5.304;2023-05-25T04:34:27;14.77;;;9.37;;
29938;SDS011;16799;50.844;5.304;2023-05-25T04:36:53;13.60;;;7.20;;
29938;SDS011;16799;50.844;5.304;2023-05-25T04:39:20;11.93;;;8.40;;
29938;SDS011;16799;50.844;5.304;2023-05-25T04:41:46;17.50;;;11.73;;
29938;SDS011;16799;50.844;5.304;2023-05-25T04:44:13;18.27;;;9.73;;
29938;SDS011;16799;50.844;5.304;2023-05-25T04:46:39;20.40;;;9.03;;
29938;SDS011;16799;50.844;5.304;2023-05-25T04:49:04;15.20;;;9.23;;
29938;SDS011;16799;50.844;5.304;2023-05-25T04:51:32;14.47;;;9.47;;
29938;SDS011;16799;50.844;5.304;2023-05-25T04:53:58;14.87;;;9.80;;
29938;SDS011;16799;50.844;5.304;2023-05-25T04:56:23;15.23;;;10.57;;
29938;SDS011;16799;50.844;5.304;2023-05-25T04:58:50;12.10;;;9.30;;
29938;SDS011;16799;50.844;5.304;2023-05-25T05:01:17;16.03;;;11.47;;
29938;SDS011;16799;50.844;5.304;2023-05-25T05:03:44;16.40;;;10.00;;
29938;SDS011;16799;50.844;5.304;2023-05-25T05:06:10;25.30;;;10.10;;
29938;SDS011;16799;50.844;5.304;2023-05-25T05:08:36;20.30;;;11.33;;
29938;SDS011;16799;50.844;5.304;2023-05-25T05:11:01;17.37;;;9.60;;
29938;SDS011;16799;50.844;5.304;2023-05-25T05:13:27;13.73;;;10.27;;
29938;SDS011;16799;50.844;5.304;2023-05-25T05:15:52;20.23;;;10.23;;
29938;SDS011;16799;50.844;5.304;2023-05-25T05:18:18;20.63;;;11.07;;
29938;SDS011;16799;50.844;5.304;2023-05-25T05:20:44;15.80;;;9.63;;
29938;SDS011;16799;50.844;5.304;2023-05-25T05:23:10;17.43;;;10.50;;
29938;SDS011;16799;50.844;5.304;2023-05-25T05:25:37;14.60;;;9.80;;
29938;SDS011;16799;50.844;5.304;2023-05-25T05:28:03;20.23;;;12.00;;
29938;SDS011;16799;50.844;5.304;2023-05-25T05:30:29;19.70;;;10.80;;
29938;SDS011;16799;50.844;5.304;2023-05-25T05:32:54;18.73;;;9.50;;
29938;SDS011;16799;50.844;5.304;2023-05-25T05:35:20;18.60;;;12.00;;
29938;SDS011;16799;50.844;5.304;2023-05-25T05:37:46;26.37;;;10.83;;
29938;SDS011;16799;50.844;5.304;2023-05-25T05:40:12;16.30;;;10.90;;
29938;SDS011;16799;50.844;5.304;2023-05-25T05:42:38;13.57;;;10.37;;
29938;SDS011;16799;50.844;5.304;2023-05-25T05:45:04;13.47;;;7.93;;
29938;SDS011;16799;50.844;5.304;2023-05-25T05:47:30;27.67;;;11.90;;
29938;SDS011;16799;50.844;5.304;2023-05-25T05:49:56;21.77;;;10.13;;
29938;SDS011;16799;50.844;5.304;2023-05-25T05:52:21;14.17;;;10.17;;
29938;SDS011;16799;50.844;5.304;2023-05-25T05:54:47;21.10;;;9.53;;
29938;SDS011;16799;50.844;5.304;2023-05-25T05:57:13;17.50;;;9.70;;
29938;SDS011;16799;50.844;5.304;2023-05-25T05:59:38;26.97;;;10.80;;
29938;SDS011;16799;50.844;5.304;2023-05-25T06:02:04;21.70;;;10.73;;
29938;SDS011;16799;50.844;5.304;2023-05-25T06:04:31;23.40;;;11.80;;
29938;SDS011;16799;50.844;5.304;2023-05-25T06:06:57;21.73;;;10.43;;
29938;SDS011;16799;50.844;5.304;2023-05-25T06:09:23;13.43;;;9.93;;
29938;SDS011;16799;50.844;5.304;2023-05-25T06:11:50;29.93;;;11.80;;
29938;SDS011;16799;50.844;5.304;2023-05-25T06:14:15;22.90;;;10.87;;
29938;SDS011;16799;50.844;5.304;2023-05-25T06:16:41;21.57;;;10.50;;
29938;SDS011;16799;50.844;5.304;2023-05-25T06:19:10;22.20;;;10.03;;
29938;SDS011;16799;50.844;5.304;2023-05-25T06:21:35;40.00;;;12.63;;
29938;SDS011;16799;50.844;5.304;2023-05-25T06:24:04;14.33;;;10.00;;
29938;SDS011;16799;50.844;5.304;2023-05-25T06:26:30;20.83;;;13.30;;
29938;SDS011;16799;50.844;5.304;2023-05-25T06:28:56;19.17;;;11.23;;
29938;SDS011;16799;50.844;5.304;2023-05-25T06:31:21;29.87;;;12.10;;
29938;SDS011;16799;50.844;5.304;2023-05-25T06:33:47;21.53;;;12.80;;
29938;SDS011;16799;50.844;5.304;2023-05-25T06:36:13;21.20;;;11.27;;
29938;SDS011;16799;50.844;5.304;2023-05-25T06:38:39;16.00;;;11.67;;
29938;SDS011;16799;50.844;5.304;2023-05-25T06:41:05;33.03;;;11.87;;
29938;SDS011;16799;50.844;5.304;2023-05-25T06:43:33;19.50;;;11.70;;
29938;SDS011;16799;50.844;5.304;2023-05-25T06:45:59;21.30;;;11.60;;
29938;SDS011;16799;50.844;5.304;2023-05-25T06:48:25;15.30;;;11.07;;
29938;SDS011;16799;50.844;5.304;2023-05-25T06:50:50;22.67;;;11.30;;
29938;SDS011;16799;50.844;5.304;2023-05-25T06:53:16;25.87;;;12.73;;
29938;SDS011;16799;50.844;5.304;2023-05-25T06:55:42;26.73;;;11.80;;
29938;SDS011;16799;50.844;5.304;2023-05-25T06:58:07;16.67;;;11.60;;
29938;SDS011;16799;50.844;5.304;2023-05-25T07:00:33;30.27;;;11.70;;
29938;SDS011;16799;50.844;5.304;2023-05-25T07:02:58;18.70;;;12.67;;
29938;SDS011;16799;50.844;5.304;2023-05-25T07:05:25;21.63;;;11.63;;
29938;SDS011;16799;50.844;5.304;2023-05-25T07:07:51;25.07;;;11.67;;
29938;SDS011;16799;50.844;5.304;2023-05-25T07:10:16;21.00;;;12.10;;
29938;SDS011;16799;50.844;5.304;2023-05-25T07:12:42;21.93;;;13.40;;
29938;SDS011;16799;50.844;5.304;2023-05-25T07:15:08;22.43;;;12.00;;
29938;SDS011;16799;50.844;5.304;2023-05-25T07:17:34;24.70;;;11.93;;
29938;SDS011;16799;50.844;5.304;2023-05-25T07:20:00;19.30;;;12.20;;
29938;SDS011;16799;50.844;5.304;2023-05-25T07:22:27;29.37;;;12.90;;
29938;SDS011;16799;50.844;5.304;2023-05-25T07:24:52;40.47;;;13.60;;
29938;SDS011;16799;50.844;5.304;2023-05-25T07:27:18;26.80;;;13.77;;
29938;SDS011;16799;50.844;5.304;2023-05-25T07:29:44;36.37;;;13.57;;
29938;SDS011;16799;50.844;5.304;2023-05-25T07:32:09;18.30;;;13.57;;
29938;SDS011;16799;50.844;5.304;2023-05-25T07:34:35;42.40;;;12.83;;
29938;SDS011;16799;50.844;5.304;2023-05-25T07:37:01;24.33;;;13.13;;
29938;SDS011;16799;50.844;5.304;2023-05-25T07:39:27;31.30;;;12.53;;
29938;SDS011;16799;50.844;5.304;2023-05-25T07:41:53;27.10;;;14.60;;
29938;SDS011;16799;50.844;5.304;2023-05-25T07:44:18;25.30;;;14.93;;
29938;SDS011;16799;50.844;5.304;2023-05-25T07:46:44;25.50;;;13.90;;
29938;SDS011;16799;50.844;5.304;2023-05-25T07:49:09;38.50;;;18.60;;
29938;SDS011;16799;50.844;5.304;2023-05-25T07:51:39;43.10;;;15.73;;
29938;SDS011;16799;50.844;5.304;2023-05-25T07:54:11;30.30;;;15.60;;
29938;SDS011;16799;50.844;5.304;2023-05-25T07:56:37;34.43;;;13.63;;
29938;SDS011;16799;50.844;5.304;2023-05-25T07:59:03;23.80;;;14.00;;
29938;SDS011;16799;50.844;5.304;2023-05-25T08:01:28;29.67;;;12.93;;
29938;SDS011;16799;50.844;5.304;2023-05-25T08:03:54;28.73;;;15.80;;
29938;SDS011;16799;50.844;5.304;2023-05-25T08:06:20;42.50;;;23.17;;
29938;SDS011;16799;50.844;5.304;2023-05-25T08:08:46;26.77;;;15.77;;
29938;SDS011;16799;50.844;5.304;2023-05-25T08:11:11;19.20;;;14.90;;
29938;SDS011;16799;50.844;5.304;2023-05-25T08:13:39;26.23;;;15.63;;
29938;SDS011;16799;50.844;5.304;2023-05-25T08:16:04;30.57;;;16.20;;
29938;SDS011;16799;50.844;5.304;2023-05-25T08:18:30;27.00;;;17.83;;
29938;SDS011;16799;50.844;5.304;2023-05-25T08:20:56;25.00;;;15.93;;
29938;SDS011;16799;50.844;5.304;2023-05-25T08:23:22;28.43;;;15.20;;
29938;SDS011;16799;50.844;5.304;2023-05-25T08:25:47;20.80;;;12.77;;
29938;SDS011;16799;50.844;5.304;2023-05-25T08:28:13;24.43;;;14.37;;
29938;SDS011;16799;50.844;5.304;2023-05-25T08:30:39;22.00;;;14.20;;
29938;SDS011;16799;50.844;5.304;2023-05-25T08:33:05;23.13;;;14.90;;
29938;SDS011;16799;50.844;5.304;2023-05-25T08:35:31;35.60;;;17.27;;
29938;SDS011;16799;50.844;5.304;2023-05-25T08:37:57;20.87;;;12.90;;
29938;SDS011;16799;50.844;5.304;2023-05-25T08:40:22;20.73;;;14.20;;
29938;SDS011;16799;50.844;5.304;2023-05-25T08:42:52;25.80;;;14.60;;
29938;SDS011;16799;50.844;5.304;2023-05-25T08:45:18;24.07;;;16.33;;
29938;SDS011;16799;50.844;5.304;2023-05-25T08:47:44;25.17;;;15.90;;
29938;SDS011;16799;50.844;5.304;2023-05-25T08:50:12;22.90;;;15.73;;
29938;SDS011;16799;50.844;5.304;2023-05-25T08:52:39;17.90;;;14.30;;
29938;SDS011;16799;50.844;5.304;2023-05-25T08:55:10;18.60;;;12.13;;
29938;SDS011;16799;50.844;5.304;2023-05-25T09:00:13;18.17;;;12.50;;
29938;SDS011;16799;50.844;5.304;2023-05-25T09:02:44;12.60;;;9.70;;
29938;SDS011;16799;50.844;5.304;2023-05-25T09:05:33;16.23;;;11.13;;
29938;SDS011;16799;50.844;5.304;2023-05-25T09:07:59;17.77;;;10.20;;
29938;SDS011;16799;50.844;5.304;2023-05-25T09:10:28;8.70;;;8.00;;
29938;SDS011;16799;50.844;5.304;2023-05-25T09:12:57;13.20;;;8.60;;
29938;SDS011;16799;50.844;5.304;2023-05-25T09:15:23;30.73;;;9.43;;
29938;SDS011;16799;50.844;5.304;2023-05-25T09:17:49;18.50;;;7.93;;
29938;SDS011;16799;50.844;5.304;2023-05-25T09:20:15;13.87;;;6.90;;
29938;SDS011;16799;50.844;5.304;2023-05-25T09:22:41;19.77;;;8.20;;
29938;SDS011;16799;50.844;5.304;2023-05-25T09:25:08;26.43;;;11.50;;
29938;SDS011;16799;50.844;5.304;2023-05-25T09:27:35;19.30;;;7.70;;
29938;SDS011;16799;50.844;5.304;2023-05-25T09:30:02;12.27;;;6.97;;
29938;SDS011;16799;50.844;5.304;2023-05-25T09:32:29;18.90;;;8.97;;
29938;SDS011;16799;50.844;5.304;2023-05-25T09:34:55;17.23;;;7.00;;
29938;SDS011;16799;50.844;5.304;2023-05-25T09:37:30;10.63;;;7.13;;
29938;SDS011;16799;50.844;5.304;2023-05-25T09:39:56;14.07;;;8.13;;
29938;SDS011;16799;50.844;5.304;2023-05-25T09:42:22;21.83;;;8.83;;
29938;SDS011;16799;50.844;5.304;2023-05-25T09:44:47;13.93;;;6.97;;
29938;SDS011;16799;50.844;5.304;2023-05-25T09:47:13;21.20;;;9.73;;
29938;SDS011;16799;50.844;5.304;2023-05-25T09:49:40;13.60;;;7.80;;
29938;SDS011;16799;50.844;5.304;2023-05-25T09:52:08;17.50;;;7.40;;
29938;SDS011;16799;50.844;5.304;2023-05-25T09:54:35;10.10;;;7.53;;
29938;SDS011;16799;50.844;5.304;2023-05-25T09:57:03;11.63;;;6.67;;
29938;SDS011;16799;50.844;5.304;2023-05-25T09:59:29;18.43;;;7.90;;
29938;SDS011;16799;50.844;5.304;2023-05-25T10:01:56;18.63;;;7.00;;
29938;SDS011;16799;50.844;5.304;2023-05-25T10:04:22;16.80;;;7.50;;
29938;SDS011;16799;50.844;5.304;2023-05-25T10:06:48;10.53;;;7.53;;
29938;SDS011;16799;50.844;5.304;2023-05-25T10:09:17;9.20;;;7.80;;
29938;SDS011;16799;50.844;5.304;2023-05-25T10:11:44;9.60;;;7.33;;
29938;SDS011;16799;50.844;5.304;2023-05-25T10:14:09;7.70;;;6.63;;
29938;SDS011;16799;50.844;5.304;2023-05-25T10:16:44;7.40;;;6.00;;
29938;SDS011;16799;50.844;5.304;2023-05-25T10:19:49;4.63;;;4.10;;
29938;SDS011;16799;50.844;5.304;2023-05-25T10:22:20;8.60;;;5.87;;
29938;SDS011;16799;50.844;5.304;2023-05-25T10:24:49;9.13;;;6.50;;
29938;SDS011;16799;50.844;5.304;2023-05-25T10:27:21;10.40;;;5.47;;
29938;SDS011;16799;50.844;5.304;2023-05-25T10:29:50;13.37;;;6.30;;
29938;SDS011;16799;50.844;5.304;2023-05-25T10:32:19;22.43;;;7.87;;
29938;SDS011;16799;50.844;5.304;2023-05-25T10:34:45;7.37;;;5.07;;
29938;SDS011;16799;50.844;5.304;2023-05-25T10:37:12;10.43;;;5.53;;
29938;SDS011;16799;50.844;5.304;2023-05-25T10:39:39;11.40;;;5.07;;
29938;SDS011;16799;50.844;5.304;2023-05-25T10:42:07;16.40;;;6.97;;
29938;SDS011;16799;50.844;5.304;2023-05-25T10:44:33;10.03;;;4.40;;
29938;SDS011;16799;50.844;5.304;2023-05-25T10:46:59;7.93;;;6.30;;
29938;SDS011;16799;50.844;5.304;2023-05-25T10:49:32;10.50;;;5.87;;
29938;SDS011;16799;50.844;5.304;2023-05-25T10:51:58;6.23;;;3.47;;
29938;SDS011;16799;50.844;5.304;2023-05-25T10:54:32;11.57;;;5.30;;
29938;SDS011;16799;50.844;5.304;2023-05-25T11:00:04;4.83;;;4.43;;
29938;SDS011;16799;50.844;5.304;2023-05-25T11:02:51;8.97;;;4.40;;
29938;SDS011;16799;50.844;5.304;2023-05-25T11:07:54;12.70;;;5.33;;
29938;SDS011;16799;50.844;5.304;2023-05-25T11:19:14;7.27;;;4.87;;
29938;SDS011;16799;50.844;5.304;2023-05-25T11:21:41;10.53;;;4.60;;
29938;SDS011;16799;50.844;5.304;2023-05-25T11:24:15;10.57;;;4.60;;
29938;SDS011;16799;50.844;5.304;2023-05-25T11:26:57;6.90;;;3.20;;
29938;SDS011;16799;50.844;5.304;2023-05-25T11:29:25;5.70;;;3.83;;
29938;SDS011;16799;50.844;5.304;2023-05-25T11:31:55;7.00;;;2.93;;
29938;SDS011;16799;50.844;5.304;2023-05-25T11:34:21;23.07;;;4.77;;
29938;SDS011;16799;50.844;5.304;2023-05-25T11:36:52;13.07;;;3.47;;
29938;SDS011;16799;50.844;5.304;2023-05-25T11:39:22;6.63;;;3.50;;
29938;SDS011;16799;50.844;5.304;2023-05-25T11:41:49;7.70;;;4.10;;
29938;SDS011;16799;50.844;5.304;2023-05-25T11:44:25;5.97;;;3.90;;
29938;SDS011;16799;50.844;5.304;2023-05-25T11:46:59;9.20;;;4.20;;
29938;SDS011;16799;50.844;5.304;2023-05-25T11:49:26;8.17;;;3.17;;
29938;SDS011;16799;50.844;5.304;2023-05-25T11:51:52;6.47;;;4.70;;
29938;SDS011;16799;50.844;5.304;2023-05-25T11:54:23;4.97;;;3.53;;
29938;SDS011;16799;50.844;5.304;2023-05-25T11:56:50;8.50;;;4.03;;
29938;SDS011;16799;50.844;5.304;2023-05-25T11:59:17;4.17;;;2.60;;
29938;SDS011;16799;50.844;5.304;2023-05-25T12:01:43;5.83;;;3.80;;
29938;SDS011;16799;50.844;5.304;2023-05-25T12:04:26;7.40;;;3.83;;
29938;SDS011;16799;50.844;5.304;2023-05-25T12:07:00;5.93;;;4.30;;
29938;SDS011;16799;50.844;5.304;2023-05-25T12:09:29;9.23;;;3.40;;
29938;SDS011;16799;50.844;5.304;2023-05-25T12:11:54;5.00;;;3.97;;
29938;SDS011;16799;50.844;5.304;2023-05-25T12:14:20;5.50;;;3.33;;
29938;SDS011;16799;50.844;5.304;2023-05-25T12:16:47;5.20;;;3.07;;
29938;SDS011;16799;50.844;5.304;2023-05-25T12:19:14;6.30;;;2.90;;
29938;SDS011;16799;50.844;5.304;2023-05-25T12:21:41;4.07;;;3.33;;
29938;SDS011;16799;50.844;5.304;2023-05-25T12:24:07;3.33;;;2.87;;
29938;SDS011;16799;50.844;5.304;2023-05-25T12:26:45;14.63;;;4.00;;
29938;SDS011;16799;50.844;5.304;2023-05-25T12:29:12;9.93;;;3.60;;
29938;SDS011;16799;50.844;5.304;2023-05-25T12:31:39;5.20;;;3.20;;
29938;SDS011;16799;50.844;5.304;2023-05-25T12:34:12;4.37;;;2.93;;
29938;SDS011;16799;50.844;5.304;2023-05-25T12:36:42;5.00;;;3.90;;
29938;SDS011;16799;50.844;5.304;2023-05-25T12:39:07;7.20;;;4.27;;
29938;SDS011;16799;50.844;5.304;2023-05-25T12:41:45;3.87;;;3.10;;
29938;SDS011;16799;50.844;5.304;2023-05-25T12:46:51;6.10;;;2.90;;
29938;SDS011;16799;50.844;5.304;2023-05-25T12:49:31;5.43;;;2.90;;
29938;SDS011;16799;50.844;5.304;2023-05-25T12:51:58;7.93;;;3.03;;
29938;SDS011;16799;50.844;5.304;2023-05-25T12:57:00;3.70;;;3.33;;
29938;SDS011;16799;50.844;5.304;2023-05-25T12:59:32;3.73;;;3.23;;
29938;SDS011;16799;50.844;5.304;2023-05-25T13:01:59;15.20;;;3.40;;
29938;SDS011;16799;50.844;5.304;2023-05-25T13:04:25;4.90;;;3.40;;
29938;SDS011;16799;50.844;5.304;2023-05-25T13:06:51;4.50;;;3.30;;
29938;SDS011;16799;50.844;5.304;2023-05-25T13:09:18;4.70;;;3.47;;
29938;SDS011;16799;50.844;5.304;2023-05-25T13:11:44;4.67;;;3.00;;
29938;SDS011;16799;50.844;5.304;2023-05-25T13:14:09;4.87;;;3.77;;
29938;SDS011;16799;50.844;5.304;2023-05-25T13:16:35;6.33;;;4.40;;
29938;SDS011;16799;50.844;5.304;2023-05-25T13:19:01;9.57;;;4.63;;
29938;SDS011;16799;50.844;5.304;2023-05-25T13:21:26;5.40;;;4.17;;
29938;SDS011;16799;50.844;5.304;2023-05-25T13:23:52;7.03;;;3.80;;
29938;SDS011;16799;50.844;5.304;2023-05-25T13:26:18;5.70;;;4.37;;
29938;SDS011;16799;50.844;5.304;2023-05-25T13:28:44;7.10;;;3.70;;
29938;SDS011;16799;50.844;5.304;2023-05-25T13:31:10;4.43;;;3.70;;
29938;SDS011;16799;50.844;5.304;2023-05-25T13:33:36;5.17;;;4.60;;
29938;SDS011;16799;50.844;5.304;2023-05-25T13:36:02;7.97;;;4.30;;
29938;SDS011;16799;50.844;5.304;2023-05-25T13:38:34;8.33;;;5.50;;
29938;SDS011;16799;50.844;5.304;2023-05-25T13:41:00;9.50;;;3.30;;
29938;SDS011;16799;50.844;5.304;2023-05-25T13:43:26;11.57;;;4.40;;
29938;SDS011;16799;50.844;5.304;2023-05-25T13:45:52;7.23;;;4.40;;
29938;SDS011;16799;50.844;5.304;2023-05-25T13:48:18;7.03;;;4.40;;
29938;SDS011;16799;50.844;5.304;2023-05-25T13:50:44;5.00;;;3.97;;
29938;SDS011;16799;50.844;5.304;2023-05-25T13:53:10;4.33;;;3.73;;
29938;SDS011;16799;50.844;5.304;2023-05-25T13:55:36;13.47;;;4.27;;
29938;SDS011;16799;50.844;5.304;2023-05-25T13:58:03;5.33;;;3.60;;
29938;SDS011;16799;50.844;5.304;2023-05-25T14:00:28;9.13;;;4.50;;
29938;SDS011;16799;50.844;5.304;2023-05-25T14:02:54;6.37;;;4.17;;
29938;SDS011;16799;50.844;5.304;2023-05-25T14:05:20;12.50;;;4.47;;
29938;SDS011;16799;50.844;5.304;2023-05-25T14:07:46;9.57;;;5.00;;
29938;SDS011;16799;50.844;5.304;2023-05-25T14:10:12;6.77;;;3.00;;
29938;SDS011;16799;50.844;5.304;2023-05-25T14:12:37;5.50;;;3.80;;
29938;SDS011;16799;50.844;5.304;2023-05-25T14:15:04;5.87;;;4.17;;
29938;SDS011;16799;50.844;5.304;2023-05-25T14:17:30;5.97;;;4.43;;
29938;SDS011;16799;50.844;5.304;2023-05-25T14:19:56;7.17;;;3.17;;
29938;SDS011;16799;50.844;5.304;2023-05-25T14:22:22;4.50;;;3.73;;
29938;SDS011;16799;50.844;5.304;2023-05-25T14:24:49;5.83;;;4.70;;
29938;SDS011;16799;50.844;5.304;2023-05-25T14:27:15;8.77;;;4.80;;
29938;SDS011;16799;50.844;5.304;2023-05-25T14:29:45;10.30;;;4.23;;
29938;SDS011;16799;50.844;5.304;2023-05-25T14:32:11;7.70;;;4.47;;
29938;SDS011;16799;50.844;5.304;2023-05-25T14:34:38;6.33;;;3.53;;
29938;SDS011;16799;50.844;5.304;2023-05-25T14:37:04;4.90;;;3.53;;
29938;SDS011;16799;50.844;5.304;2023-05-25T14:39:30;8.10;;;4.37;;
29938;SDS011;16799;50.844;5.304;2023-05-25T14:41:55;9.83;;;5.77;;
29938;SDS011;16799;50.844;5.304;2023-05-25T14:44:21;5.40;;;3.87;;
29938;SDS011;16799;50.844;5.304;2023-05-25T14:46:46;10.10;;;4.10;;
29938;SDS011;16799;50.844;5.304;2023-05-25T14:49:12;10.60;;;4.23;;
29938;SDS011;16799;50.844;5.304;2023-05-25T14:51:38;8.07;;;3.80;;
29938;SDS011;16799;50.844;5.304;2023-05-25T14:54:04;4.23;;;3.87;;
29938;SDS011;16799;50.844;5.304;2023-05-25T14:56:31;7.03;;;4.67;;
29938;SDS011;16799;50.844;5.304;2023-05-25T14:58:57;4.60;;;4.20;;
29938;SDS011;16799;50.844;5.304;2023-05-25T15:01:23;6.03;;;3.90;;